Terminal Aerodrome Forecast
Issued by NWS

Home | Current Version | Previous Version | Text Only | Print | Product List | Glossary On
Versions: 1 2 3 4 5 6 7 8 9 10 11 12 13 14 15 16 17 18 19 20 21 22 23 24 25 26 27 28
000
FTUS43 KDVN 291734
TAFCID
TAF
KCID 291734Z 2918/3018 22008KT P6SM VCSH SCT020 BKN120
      TEMPO 2918/2920 BKN018
     FM292000 22013KT P6SM VCTS BKN040CB
     FM292300 23008KT 3SM TSRA BR BKN020CB
     FM300500 25005KT 3SM BR VCSH BKN008 OVC012
     FM301400 35014KT 6SM BR OVC015=

USA.gov is the U.S. government's official web portal to all federal, state and local government web resources and services.